Latest Coastal Weather Observations for Adelaide Airport

IDS60701

Issued at 11:11 am CDT Thursday 18 December 2014 (issued every 10 minutes, with the page automatically refreshed every 10 minutes)

About coastal observations | Map of coastal stations | Coastal observations for SA | Marine services | Other Formats
Station Details ID: 023034 Name: ADELAIDE AIRPORT Lat: -34.95 Lon: 138.52 Height: 2.0 m
Data from the previous 72 hours. | See also: Recent months at Adelaide Airport
Date/Time
CDT
Temp

°C
Wind Pressure Rain
since 9am
mm
Weather Cloud Vis
km
Sea
Height
m
Swell
Dir
 
Speed
knots
Gust
knots
hPa Trend Height
m
Period
s
Dir
18/11:00am 20.1 W 17 22 1012.2 - 0.0 - Partly cloudy 10 - - - -
18/10:30am 21.0 W 15 21 1012.0 - 0.0 - Partly cloudy 10 - - - -
18/10:00am 20.0 W 16 22 1011.9 - 0.0 - Mostly clear 10 - - - -
18/09:30am 19.2 W 16 19 1011.6 - 0.0 - Mostly clear 10 - - - -
18/09:00am 19.4 W 15 19 1011.3 R 0.0 Fine Partly cloudy 30 - - - -
18/08:30am 18.6 W 14 18 1011.1 - 0.0 - Partly cloudy 10 - - - -
18/08:00am 18.6 W 13 18 1010.6 - 0.0 - Mostly clear 10 - - - -
18/07:30am 17.8 W 15 19 1010.4 - 0.0 - Mostly clear 10 - - - -
18/07:00am 17.5 W 12 16 1010.1 - 0.0 - Mostly clear 10 - - - -
18/06:00am 16.6 W 10 15 1009.6 R 0.0 Fine Mostly clear 25 - - - -
18/05:30am 16.6 W 9 15 1009.2 - 0.0 - Mostly clear 10 - - - -
18/05:00am 16.7 W 8 10 1008.7 - 0.0 - Mostly clear 10 - - - -
18/04:30am 16.9 W 10 14 1008.4 - 0.0 - Mostly clear 10 - - - -
18/04:00am 16.9 W 8 10 1008.2 - 0.0 - Mostly clear 10 - - - -
18/03:30am 16.9 W 9 12 1008.0 - 0.0 - Mostly clear 10 - - - -
18/03:00am 16.3 W 7 8 1008.0 R 0.0 Fine Mostly clear 30 - - - -
18/02:30am 16.8 W 7 9 1007.8 - 0.0 - - 10 - - - -
18/02:00am 16.9 W 8 9 1007.9 - 0.0 - - 10 - - - -
18/01:30am 17.2 W 11 14 1008.1 - 0.0 - - 10 - - - -
18/12:30am 16.9 W 7 8 1008.6 - 0.0 - Mostly clear 10 - - - -
18/12:00am 16.8 W 5 7 1008.8 R 0.0 Fine Mostly clear 10 - - - -
 
Date/Time
CDT
Temp

°C
Wind Pressure Rain
since 9am
mm
Weather Cloud Vis
km
Sea
Height
m
Swell
Dir
 
Speed
knots
Gust
knots
hPa Trend Height
m
Period
s
Dir
17/11:30pm 17.2 W 7 9 1009.1 - 0.0 - Mostly clear 10 - - - -
17/11:00pm 17.1 SW 9 12 1009.3 - 0.0 - - 10 - - - -
17/10:30pm 17.4 SW 10 13 1009.2 - 0.0 - - 10 - - - -
17/10:00pm 17.5 SW 10 15 1009.0 - 0.0 - - 10 - - - -
17/09:30pm 17.8 SSW 9 13 1008.5 - 0.0 - - 10 - - - -
17/09:00pm 18.2 SSW 11 14 1008.3 F 0.0 Fine Mostly clear 30 - - - -
17/08:30pm 18.7 SSW 8 10 1008.0 - 0.0 - - 10 - - - -
17/08:00pm 19.3 SW 10 13 1007.8 - 0.0 - - 10 - - - -
17/07:30pm 20.0 SW 7 9 1007.4 - 0.0 - - 10 - - - -
17/07:00pm 20.2 SSW 7 9 1007.2 - 0.0 - - 10 - - - -
17/06:30pm 20.5 SSW 7 10 1007.6 - 0.0 - - 10 - - - -
17/06:00pm 20.8 SW 7 10 1007.8 F 0.0 Fine Partly cloudy 30 - - - -
17/05:30pm 20.4 SW 9 12 1008.0 - 0.0 - - 10 - - - -
17/05:00pm 20.1 WSW 7 10 1008.3 - 0.0 - - 10 - - - -
17/04:30pm 20.8 WSW 7 10 1008.7 - 0.0 - - 10 - - - -
17/04:00pm 20.9 WSW 7 9 1008.8 - 0.0 - - 10 - - - -
17/03:30pm 21.1 WNW 6 11 1008.8 - 0.0 - - 10 - - - -
17/03:00pm 20.6 W 7 11 1009.1 F 0.0 Fine Mostly clear 30 - - - -
17/02:30pm 21.0 SW 8 12 1009.4 - 0.0 - - 10 - - - -
17/02:00pm 20.5 SW 6 10 1009.6 - 0.0 - - 10 - - - -
17/01:30pm 20.0 W 6 9 1009.9 - 0.0 - - 10 - - - -
17/01:00pm 19.0 W 9 13 1010.4 - 0.0 - - 10 - - - -
17/12:30pm 19.1 W 10 14 1010.6 - 0.0 - - 10 - - - -
17/12:00pm 18.8 WSW 10 16 1010.7 F 0.0 Fine Partly cloudy 30 - - - -
17/11:30am 18.9 WSW 10 13 1011.1 - 0.0 - - 10 - - - -
17/11:00am 18.4 W 9 12 1011.3 - 0.0 - Partly cloudy 10 - - - -
17/10:30am 18.3 W 8 10 1011.4 - 0.0 - Partly cloudy 10 - - - -
17/10:00am 17.2 SSW 5 7 1011.5 - 0.0 - Partly cloudy 10 - - - -
17/09:30am 17.2 WNW 4 6 1011.6 - 0.0 - Partly cloudy 10 - - - -
17/09:00am 17.1 NW 5 7 1011.7 R 0.2 Fine Mostly cloudy 30 - - - -
17/08:30am 16.3 S 4 6 1011.7 - 0.2 - Mostly clear 10 - - - -
17/08:00am 17.0 E 5 6 1011.5 - 0.2 - Mostly clear 10 - - - -
17/07:30am 16.5 ESE 7 8 1011.3 - 0.2 - Mostly clear 10 - - - -
17/07:00am 14.9 E 5 6 1011.1 - 0.2 - Mostly clear 10 - - - -
17/06:30am 13.3 E 5 5 1010.9 - 0.2 - Mostly clear 10 - - - -
17/06:00am 11.7 E 4 5 1010.3 R 0.2 Fine Partly cloudy 25 - - - -
17/05:30am 12.3 ESE 4 5 1009.9 - 0.2 - Mostly clear 10 - - - -
17/05:00am 12.9 SE 5 5 1009.5 - 0.2 - Mostly clear 10 - - - -
17/04:30am 12.8 ESE 6 6 1009.2 - 0.2 - Mostly clear 10 - - - -
17/04:00am 11.8 SE 6 7 1009.0 - 0.2 - Mostly clear 10 - - - -
17/03:30am 12.1 SE 6 7 1009.1 - 0.2 - Mostly clear 10 - - - -
17/03:00am 12.5 SE 6 7 1009.0 R 0.2 Fine Mostly clear 25 - - - -
17/02:30am 13.3 SE 5 7 1009.0 - 0.2 - Mostly clear 10 - - - -
17/02:00am 13.6 SSE 6 8 1009.0 - 0.2 - Mostly clear 10 - - - -
17/01:30am 14.8 SSE 7 9 1009.2 - 0.2 - Mostly clear 10 - - - -
17/01:00am 15.2 SSE 8 10 1009.3 - 0.2 - Mostly clear 10 - - - -
17/12:30am 15.1 SSE 7 10 1009.6 - 0.2 - Mostly clear 10 - - - -
17/12:00am 15.1 SSE 8 10 1009.7 R 0.2 Fine Partly cloudy 25 - - - -
 
Date/Time
CDT
Temp

°C
Wind Pressure Rain
since 9am
mm
Weather Cloud Vis
km
Sea
Height
m
Swell
Dir
 
Speed
knots
Gust
knots
hPa Trend Height
m
Period
s
Dir
16/11:30pm 15.8 SSE 10 14 1009.6 - 0.2 - Mostly clear 10 - - - -
16/11:00pm 15.9 S 10 14 1009.7 - 0.2 - Mostly clear 10 - - - -
16/10:30pm 16.8 S 13 18 1009.6 - 0.2 - Mostly clear 10 - - - -
16/10:00pm 17.6 SSW 13 17 1009.5 - 0.2 - Mostly clear 10 - - - -
16/09:30pm 17.8 SSW 14 20 1009.2 - 0.2 - Mostly clear 10 - - - -
16/09:00pm 17.9 SW 15 20 1008.9 R 0.2 Haze Mostly cloudy 25 - - - -
16/08:30pm 18.3 SSW 16 22 1008.4 - 0.2 Showers Mostly clear 10 - - - -
16/08:00pm 18.1 SW 19 25 1008.1 - 0.2 - Mostly clear 10 - - - -
16/07:30pm 18.6 SW 19 25 1007.7 - 0.2 - Mostly clear 10 - - - -
16/07:00pm 19.2 SW 20 24 1007.3 - 0.2 - Mostly clear 10 - - - -
16/06:30pm 19.7 WSW 22 28 1006.8 - 0.2 - Mostly clear 10 - - - -
16/06:00pm 19.9 WSW 20 26 1006.3 R 0.2 Fine Mostly clear 25 - - - -
16/05:30pm 20.1 WSW 24 29 1006.2 - 0.2 - Mostly clear 10 - - - -
16/05:00pm 20.8 WSW 25 32 1005.9 - 0.2 - Mostly clear 10 - - - -
16/04:30pm 21.0 WSW 28 33 1005.8 - 0.2 - Mostly clear 10 - - - -
16/04:00pm 22.0 WSW 26 33 1005.7 - 0.2 - Mostly clear 10 - - - -
16/03:30pm 21.0 WSW 22 29 1005.6 - 0.2 - Mostly clear 10 - - - -
16/03:00pm 21.1 SW 26 33 1005.5 R 0.2 Haze Mostly clear 20 - - - -
16/02:30pm 21.7 SW 23 29 1005.1 - 0.2 - Mostly clear 10 - - - -
16/02:00pm 21.9 WSW 24 30 1005.0 - 0.2 - Mostly clear 10 - - - -
16/01:30pm 21.5 SW 23 30 1004.8 - 0.0 - Mostly clear 10 - - - -
16/01:00pm 20.5 WSW 22 29 1004.5 - 0.0 - Partly cloudy 10 - - - -
16/12:38pm 20.2 SW 23 28 1004.0 - 0.0 - Mostly clear 10 - - - -
16/12:35pm 20.2 W 16 28 1003.8 - 0.0 Showers Partly cloudy 10 - - - -
16/12:30pm 21.7 W 15 19 1003.7 - 0.0 Showers Partly cloudy 10 - - - -
16/12:00pm 20.8 W 11 15 1003.6 R 0.0 Recent precip. Mostly cloudy 25 - - - -
16/11:30am 21.2 WNW 16 20 1003.6 - 0.0 Showers Mostly clear 10 - - - -
16/11:00am 21.7 NW 12 17 1003.1 - 0.0 - Mostly clear 10 - - - -
16/10:30am 20.8 NNW 12 15 1003.1 - 0.0 - Mostly clear 10 - - - -
16/10:00am 20.1 NW 11 14 1002.6 - 0.0 - Mostly clear 10 - - - -
16/09:30am 20.7 WNW 13 17 1002.8 - 0.0 - Mostly clear 10 - - - -
16/09:00am 20.1 NW 12 16 1003.0 R 0.0 Fine Mostly cloudy 20 - - - -
16/08:30am 19.1 N 7 10 1002.6 - 0.0 - Mostly clear 10 - - - -
16/08:00am 17.8 N 9 12 1002.2 - 0.0 - Mostly clear 10 - - - -
16/07:30am 16.8 N 9 12 1001.9 - 0.0 - Mostly clear 10 - - - -
16/07:00am 16.0 NNE 7 10 1001.4 - 0.0 - Mostly clear 10 - - - -
16/06:30am 13.8 NNE 7 8 1001.0 - 0.0 - Mostly clear 10 - - - -
16/06:00am 13.9 NE 6 7 1000.4 F 0.0 Fine Mostly clear 30 - - - -
16/05:30am 14.4 NE 7 9 1000.0 - 0.0 - Mostly clear 10 - - - -
16/05:00am 14.7 NE 11 14 999.9 - 0.0 - - 10 - - - -
16/04:30am 14.2 NE 8 10 1000.4 - 0.0 - - 10 - - - -
16/04:00am 13.3 NE 7 8 1000.7 - 0.0 - - 10 - - - -
16/03:30am 13.1 NE 6 6 1001.2 - 0.0 - - 10 - - - -
16/03:00am 13.3 CALM 0 0 1001.1 F 0.0 Fine Clear 30 - - - -
16/02:30am 13.5 CALM 0 0 1000.9 - 0.0 - - 10 - - - -
16/02:00am 13.6 SE 3 4 1001.0 - 0.0 - - 10 - - - -
16/01:30am 14.7 S 3 6 1001.4 - 0.0 - - 10 - - - -
16/01:00am 14.5 E 1 4 1001.7 - 0.0 - - 10 - - - -
16/12:30am 15.1 SE 3 3 1002.3 - 0.0 - - 10 - - - -
16/12:00am 15.5 S 5 6 1002.6 F 0.0 Fine Clear 30 - - - -
 
Date/Time
CDT
Temp

°C
Wind Pressure Rain
since 9am
mm
Weather Cloud Vis
km
Sea
Height
m
Swell
Dir
 
Speed
knots
Gust
knots
hPa Trend Height
m
Period
s
Dir
15/11:30pm 16.2 S 7 8 1003.0 - 0.0 - - 10 - - - -
15/11:00pm 16.7 S 7 8 1003.4 - 0.0 - - 10 - - - -
15/10:30pm 17.4 S 6 7 1003.7 - 0.0 - - 10 - - - -
15/10:00pm 18.5 SSW 6 7 1003.6 - 0.0 - - 10 - - - -
15/09:30pm 20.1 SW 9 11 1003.7 - 0.0 - - 10 - - - -
15/09:00pm 20.4 SW 12 15 1003.6 F 0.0 Fine Clear 30 - - - -
15/08:30pm 20.5 SW 12 16 1003.5 - 0.0 - - 10 - - - -
15/08:00pm 21.0 SW 13 18 1003.5 - 0.0 - - 10 - - - -
15/07:30pm 21.8 SW 13 16 1003.5 - 0.0 - - 10 - - - -
15/07:00pm 21.6 SW 16 21 1003.4 - 0.0 - - 10 - - - -
15/06:30pm 21.8 SW 18 23 1003.3 - 0.0 - - 10 - - - -
15/06:00pm 22.5 SW 14 17 1003.0 F 0.0 Fine Clear 30 - - - -
15/05:30pm 22.5 SSW 15 19 1003.0 - 0.0 - - 10 - - - -
15/05:00pm 23.6 SW 17 21 1003.0 - 0.0 - - 10 - - - -
15/04:30pm 23.1 SW 18 22 1003.2 - 0.0 - - 10 - - - -
15/04:00pm 23.5 SW 17 21 1003.3 - 0.0 - - 10 - - - -
15/03:30pm 22.7 SW 16 19 1003.6 - 0.0 - Mostly clear 10 - - - -
15/03:00pm 24.0 SW 15 18 1004.0 F 0.0 Fine Clear 30 - - - -
15/02:30pm 23.3 SW 16 19 1004.5 - 0.0 - - 10 - - - -
15/02:00pm 23.1 WSW 17 20 1004.9 - 0.0 - - 10 - - - -
15/01:30pm 22.8 WSW 17 19 1005.3 - 0.0 - - 10 - - - -
15/01:00pm 23.6 WSW 16 19 1005.7 - 0.0 - - 10 - - - -
15/12:30pm 22.9 WSW 14 16 1005.9 - 0.0 - - 10 - - - -
15/12:00pm 22.9 W 11 15 1006.1 F 0.0 Fine Mostly clear 30 - - - -
15/11:30am 21.8 WSW 11 13 1006.6 - 0.0 - - 10 - - - -

Other Formats:

Comma delimited format used in spreadsheet applications
http://www.bom.gov.au/fwo/IDS60701/IDS60701.94672.axf

JavaScript Object Notation format (JSON) in row-major order
http://www.bom.gov.au/fwo/IDS60701/IDS60701.94672.json